createdAt,value
2022-08-03T00:00:18.449Z,5.32
2022-08-03T00:00:50.680Z,5.12
2022-08-03T00:01:22.623Z,5.55
2022-08-03T00:01:54.537Z,5.87
2022-08-03T00:02:26.546Z,5.32
2022-08-03T00:02:58.529Z,5.20
2022-08-03T00:03:30.599Z,5.00
2022-08-03T00:04:02.741Z,5.18
2022-08-03T00:04:34.710Z,4.95
2022-08-03T00:05:08.475Z,5.68
2022-08-03T00:05:40.524Z,4.87
2022-08-03T00:06:36.947Z,5.78
2022-08-03T00:07:09.289Z,5.30
2022-08-03T00:07:41.863Z,5.57
2022-08-03T00:08:13.813Z,5.20
2022-08-03T00:08:51.587Z,5.37
2022-08-03T00:09:23.495Z,5.30
2022-08-03T00:09:55.440Z,5.22
2022-08-03T00:10:27.470Z,4.97
2022-08-03T00:10:59.729Z,4.80
2022-08-03T00:11:31.661Z,5.07
2022-08-03T00:12:04.065Z,5.32
2022-08-03T00:12:36.501Z,4.93
2022-08-03T00:13:08.822Z,4.97
2022-08-03T00:13:41.740Z,5.62
2022-08-03T00:14:13.825Z,5.30
2022-08-03T00:14:45.819Z,5.05
2022-08-03T00:15:17.865Z,4.85
2022-08-03T00:15:49.891Z,5.10
2022-08-03T00:16:21.920Z,4.78
2022-08-03T00:16:55.189Z,5.57
2022-08-03T00:17:27.866Z,5.30
2022-08-03T00:17:59.811Z,4.93
2022-08-03T00:18:31.884Z,5.80
2022-08-03T00:19:04.411Z,4.97
2022-08-03T00:19:36.653Z,4.90
2022-08-03T00:20:08.983Z,4.80
2022-08-03T00:20:40.955Z,5.25
2022-08-03T00:21:12.919Z,5.05
2022-08-03T00:21:46.752Z,4.62
2022-08-03T00:22:18.865Z,5.50
2022-08-03T00:22:51.625Z,5.25
2022-08-03T00:23:23.635Z,5.50
2022-08-03T00:23:55.655Z,5.47
2022-08-03T00:24:27.760Z,5.07
2022-08-03T00:25:00.382Z,4.95
2022-08-03T00:25:33.500Z,5.25
2022-08-03T00:26:05.552Z,4.82
2022-08-03T00:26:37.935Z,4.85
2022-08-03T00:27:09.856Z,5.30
2022-08-03T00:27:41.798Z,4.75
2022-08-03T00:28:14.121Z,5.30
2022-08-03T00:28:47.705Z,5.32
2022-08-03T00:29:19.706Z,5.12
2022-08-03T00:29:59.450Z,4.68
2022-08-03T00:30:33.213Z,5.20
2022-08-03T00:31:05.175Z,5.12
2022-08-03T00:31:51.509Z,5.78
2022-08-03T00:32:24.983Z,4.90
2022-08-03T00:32:57.845Z,5.28
2022-08-03T00:33:59.934Z,5.12
2022-08-03T00:34:29.839Z,5.25
2022-08-03T00:35:11.352Z,5.00
2022-08-03T00:35:50.607Z,5.45
2022-08-03T00:36:23.171Z,5.05
2022-08-03T00:36:55.109Z,5.20
2022-08-03T00:37:41.489Z,5.40
2022-08-03T00:38:14.009Z,5.10
2022-08-03T00:38:46.287Z,5.28
2022-08-03T00:39:19.656Z,5.20
2022-08-03T00:39:51.585Z,5.72
2022-08-03T00:40:23.659Z,5.20
2022-08-03T00:40:56.500Z,4.90
2022-08-03T00:41:28.385Z,5.20
2022-08-03T00:42:06.449Z,5.20
2022-08-03T00:42:55.938Z,5.65
2022-08-03T00:43:27.928Z,5.07
2022-08-03T00:44:00.145Z,5.25
2022-08-03T00:44:32.086Z,5.32
2022-08-03T00:45:04.213Z,5.10
2022-08-03T00:45:39.493Z,5.20
2022-08-03T00:46:11.457Z,5.28
2022-08-03T00:46:43.371Z,5.40
2022-08-03T00:47:15.292Z,5.35
2022-08-03T00:47:47.950Z,5.55
2022-08-03T00:48:33.242Z,5.40
2022-08-03T00:49:06.160Z,4.97
2022-08-03T00:49:41.456Z,5.65
2022-08-03T00:50:14.085Z,5.20
2022-08-03T00:50:46.201Z,5.05
2022-08-03T00:51:23.423Z,5.05
2022-08-03T00:51:55.551Z,5.25
2022-08-03T00:52:27.487Z,4.78
2022-08-03T00:53:00.117Z,5.28
2022-08-03T00:53:32.521Z,5.10
2022-08-03T00:54:04.955Z,5.30
2022-08-03T00:54:40.609Z,5.68
2022-08-03T00:55:12.817Z,5.30
2022-08-03T00:55:45.128Z,5.87
2022-08-03T00:56:17.931Z,5.12
2022-08-03T00:56:59.633Z,5.75
2022-08-03T00:57:33.660Z,4.68
2022-08-03T00:58:06.795Z,4.72
2022-08-03T00:58:38.716Z,5.30
2022-08-03T00:59:10.836Z,5.30
2022-08-03T00:59:46.656Z,4.93
2022-08-03T01:00:22.849Z,5.12
2022-08-03T01:00:54.941Z,5.72
2022-08-03T01:01:30.619Z,5.30
2022-08-03T01:02:04.692Z,5.10
2022-08-03T01:02:37.716Z,5.20
2022-08-03T01:03:12.259Z,4.95
2022-08-03T01:03:44.401Z,4.82
2022-08-03T01:04:16.406Z,4.90
2022-08-03T01:04:48.798Z,5.10
2022-08-03T01:05:21.726Z,4.97
2022-08-03T01:06:38.915Z,5.28
2022-08-03T01:07:20.078Z,4.78
2022-08-03T01:08:01.257Z,4.47
2022-08-03T01:08:56.023Z,4.85
2022-08-03T01:10:10.354Z,4.97
2022-08-03T01:10:57.695Z,4.60
2022-08-03T01:12:00.117Z,4.82
2022-08-03T01:12:52.271Z,5.03
2022-08-03T01:14:02.354Z,4.62
2022-08-03T01:15:02.957Z,4.32
2022-08-03T01:15:51.113Z,4.43
2022-08-03T01:16:52.369Z,4.90
2022-08-03T01:17:40.621Z,4.72
2022-08-03T01:18:27.580Z,5.18
2022-08-03T01:18:59.452Z,4.93
2022-08-03T01:19:36.996Z,4.75
2022-08-03T01:20:11.921Z,5.07
2022-08-03T01:20:55.814Z,5.00
2022-08-03T01:21:49.353Z,5.30
2022-08-03T01:23:23.115Z,4.28
2022-08-03T01:24:18.984Z,4.43
2022-08-03T01:25:02.892Z,4.65
2022-08-03T01:25:37.793Z,4.62
2022-08-03T01:26:28.146Z,4.75
2022-08-03T01:28:08.473Z,4.62
2022-08-03T01:29:10.742Z,4.80
2022-08-03T01:29:54.356Z,4.37
2022-08-03T01:30:31.574Z,4.78
2022-08-03T01:31:10.354Z,5.37
2022-08-03T01:32:53.531Z,5.53
2022-08-03T01:33:01.141Z,4.93
2022-08-03T01:33:43.339Z,4.95
2022-08-03T01:34:17.249Z,5.68
2022-08-03T01:34:59.110Z,5.30
2022-08-03T01:35:43.249Z,5.53
2022-08-03T01:36:19.540Z,5.20
2022-08-03T01:36:54.150Z,4.50
2022-08-03T01:37:32.127Z,4.85
2022-08-03T01:38:08.456Z,5.15
2022-08-03T01:38:54.113Z,5.18
2022-08-03T01:39:29.021Z,5.12
2022-08-03T01:40:04.058Z,5.00
2022-08-03T01:40:39.518Z,5.07
2022-08-03T01:41:15.708Z,5.07
2022-08-03T01:42:00.995Z,5.18
2022-08-03T01:42:34.884Z,5.28
2022-08-03T01:43:09.018Z,4.93
2022-08-03T01:44:27.947Z,5.10
2022-08-03T01:44:43.187Z,4.87
2022-08-03T01:45:18.686Z,5.10
2022-08-03T01:45:52.317Z,5.57
2022-08-03T01:46:26.295Z,4.97
2022-08-03T01:47:00.560Z,4.93
2022-08-03T01:47:33.613Z,4.87
2022-08-03T01:48:07.950Z,4.97
2022-08-03T01:48:43.259Z,5.35
2022-08-03T01:49:16.116Z,5.10
2022-08-03T01:49:50.298Z,5.20
2022-08-03T01:50:27.382Z,5.35
2022-08-03T01:51:00.383Z,5.10
2022-08-03T01:52:02.901Z,4.97
2022-08-03T01:52:27.518Z,5.43
2022-08-03T01:52:59.924Z,4.93
2022-08-03T01:53:33.870Z,5.03
2022-08-03T01:54:09.908Z,5.10
2022-08-03T01:54:44.447Z,5.28
2022-08-03T01:55:20.040Z,5.18
2022-08-03T01:55:55.623Z,5.40
2022-08-03T01:56:30.160Z,5.05
2022-08-03T01:57:03.862Z,5.40
2022-08-03T01:58:05.365Z,5.07
2022-08-03T01:58:32.160Z,5.22
2022-08-03T01:59:05.637Z,4.75
2022-08-03T01:59:39.468Z,4.85
2022-08-03T02:00:12.620Z,5.00
2022-08-03T02:00:45.444Z,5.47
2022-08-03T02:01:19.286Z,5.03
2022-08-03T02:02:31.959Z,5.20
2022-08-03T02:02:44.806Z,5.20
2022-08-03T02:03:18.132Z,5.22
2022-08-03T02:03:56.713Z,5.00
2022-08-03T02:04:35.051Z,5.55
2022-08-03T02:05:10.594Z,5.22
2022-08-03T02:05:45.773Z,5.28
2022-08-03T02:07:00.668Z,4.97
2022-08-03T02:07:14.615Z,5.40
2022-08-03T02:07:48.341Z,5.70
2022-08-03T02:08:21.879Z,5.85
2022-08-03T02:08:55.345Z,5.30
2022-08-03T02:09:30.172Z,5.15
2022-08-03T02:10:06.126Z,5.35
2022-08-03T02:10:41.844Z,5.10
2022-08-03T02:11:13.921Z,5.07
2022-08-03T02:11:47.472Z,5.50
2022-08-03T02:12:21.378Z,5.03
2022-08-03T02:12:54.676Z,5.87
2022-08-03T02:13:27.922Z,5.15
2022-08-03T02:14:03.984Z,5.47
2022-08-03T02:14:37.629Z,5.20
2022-08-03T02:15:11.251Z,5.37
2022-08-03T02:15:47.499Z,5.35
2022-08-03T02:16:21.824Z,5.80
2022-08-03T02:16:55.891Z,5.43
2022-08-03T02:17:39.278Z,5.32
2022-08-03T02:18:13.369Z,5.50
2022-08-03T02:18:47.597Z,5.82
2022-08-03T02:19:20.456Z,4.70
2022-08-03T02:19:53.805Z,5.30
2022-08-03T02:20:28.669Z,5.45
2022-08-03T02:21:05.385Z,5.30
2022-08-03T02:21:56.530Z,5.57
2022-08-03T02:22:34.610Z,5.20
2022-08-03T02:23:07.304Z,4.82
2022-08-03T02:23:40.355Z,5.45
2022-08-03T02:24:12.776Z,5.18
2022-08-03T02:24:49.344Z,5.55
2022-08-03T02:25:23.633Z,5.35
2022-08-03T02:26:02.824Z,4.70
2022-08-03T02:26:37.177Z,5.10
2022-08-03T02:27:23.784Z,5.30
2022-08-03T02:28:01.831Z,4.87
2022-08-03T02:28:38.529Z,4.50
2022-08-03T02:29:16.420Z,5.20
2022-08-03T02:29:51.417Z,5.18
2022-08-03T02:30:31.195Z,4.57
2022-08-03T02:31:05.644Z,4.70
2022-08-03T02:31:38.479Z,5.00
2022-08-03T02:32:16.549Z,4.60
2022-08-03T02:32:56.008Z,4.90
2022-08-03T02:33:39.028Z,5.78
2022-08-03T02:34:14.955Z,5.80
2022-08-03T02:34:50.854Z,5.25
2022-08-03T02:35:26.509Z,4.90
2022-08-03T02:36:01.251Z,5.50
2022-08-03T02:36:37.671Z,5.65
2022-08-03T02:37:11.712Z,5.10
2022-08-03T02:37:52.684Z,5.20
2022-08-03T02:38:31.511Z,5.35
2022-08-03T02:39:05.432Z,5.07
2022-08-03T02:39:40.873Z,5.18
2022-08-03T02:40:13.987Z,5.07
2022-08-03T02:40:47.082Z,4.80
2022-08-03T02:41:30.799Z,5.10
2022-08-03T02:42:03.226Z,4.95
2022-08-03T02:42:38.208Z,5.87
2022-08-03T02:43:17.686Z,5.10
2022-08-03T02:44:05.699Z,5.22
2022-08-03T02:44:41.603Z,4.78
2022-08-03T02:45:15.865Z,5.22
2022-08-03T02:45:50.026Z,4.93
2022-08-03T02:46:28.508Z,5.15
2022-08-03T02:47:09.785Z,5.18
2022-08-03T02:47:53.433Z,5.18
2022-08-03T02:48:30.706Z,5.15
2022-08-03T02:49:42.138Z,4.90
2022-08-03T02:50:01.872Z,5.18
2022-08-03T02:50:35.221Z,5.32
2022-08-03T02:51:07.941Z,5.20
2022-08-03T02:51:41.583Z,5.57
2022-08-03T02:52:15.748Z,5.05
2022-08-03T02:52:51.073Z,5.00
2022-08-03T02:53:24.668Z,4.65
2022-08-03T02:54:00.647Z,5.35
2022-08-03T02:54:34.803Z,4.65
2022-08-03T02:55:10.525Z,4.97
2022-08-03T02:55:43.328Z,4.90
2022-08-03T02:56:19.439Z,6.00
2022-08-03T02:56:53.671Z,5.60
2022-08-03T02:57:28.054Z,5.32
2022-08-03T02:58:01.586Z,5.37
2022-08-03T02:58:34.699Z,5.30
2022-08-03T02:59:08.495Z,5.70
2022-08-03T02:59:42.655Z,5.12
2022-08-03T03:00:19.641Z,4.93
2022-08-03T03:01:02.433Z,5.45
2022-08-03T03:01:34.402Z,5.53
2022-08-03T03:02:07.131Z,5.68
2022-08-03T03:02:43.909Z,6.00
2022-08-03T03:03:17.472Z,5.53
2022-08-03T03:03:53.851Z,5.70
2022-08-03T03:04:33.008Z,5.68
2022-08-03T03:05:56.803Z,5.90
2022-08-03T03:05:59.845Z,5.28
2022-08-03T03:06:33.063Z,5.30
2022-08-03T03:07:05.611Z,5.22
2022-08-03T03:07:52.276Z,5.53
2022-08-03T03:08:28.736Z,5.32
2022-08-03T03:09:01.645Z,5.22
2022-08-03T03:09:41.975Z,5.15
2022-08-03T03:10:15.421Z,5.37
2022-08-03T03:10:48.993Z,5.28
2022-08-03T03:11:26.733Z,5.03
2022-08-03T03:11:59.339Z,4.70
2022-08-03T03:12:32.088Z,5.18
2022-08-03T03:13:04.162Z,5.40
2022-08-03T03:13:37.204Z,5.10
2022-08-03T03:14:12.424Z,5.32
2022-08-03T03:14:44.439Z,5.15
2022-08-03T03:15:16.491Z,5.20
2022-08-03T03:15:49.812Z,5.10
2022-08-03T03:16:22.591Z,5.35
2022-08-03T03:16:57.989Z,5.30
2022-08-03T03:17:31.736Z,5.82
2022-08-03T03:18:05.429Z,6.03
2022-08-03T03:18:38.227Z,5.90
2022-08-03T03:19:12.749Z,5.72
2022-08-03T03:19:46.065Z,5.55
2022-08-03T03:20:26.238Z,5.82
2022-08-03T03:21:04.281Z,5.55
2022-08-03T03:21:37.975Z,5.80
2022-08-03T03:22:11.540Z,5.22
2022-08-03T03:22:45.196Z,5.82
2022-08-03T03:23:17.931Z,5.40
2022-08-03T03:23:51.951Z,5.65
2022-08-03T03:24:23.986Z,5.50
2022-08-03T03:24:56.431Z,5.45
2022-08-03T03:25:33.934Z,5.43
2022-08-03T03:26:06.702Z,5.75
2022-08-03T03:26:42.425Z,5.15
2022-08-03T03:27:16.645Z,5.50
2022-08-03T03:27:49.595Z,5.82
2022-08-03T03:28:25.076Z,5.60
2022-08-03T03:28:57.203Z,5.60
2022-08-03T03:29:29.652Z,5.32
2022-08-03T03:30:02.630Z,5.30
2022-08-03T03:30:35.013Z,5.62
2022-08-03T03:31:07.881Z,6.65
2022-08-03T03:31:40.451Z,5.55
2022-08-03T03:32:12.469Z,5.40
2022-08-03T03:32:44.788Z,6.00
2022-08-03T03:33:17.715Z,5.50
2022-08-03T03:33:50.058Z,6.43
2022-08-03T03:34:22.436Z,5.45
2022-08-03T03:34:57.010Z,6.55
2022-08-03T03:35:29.342Z,6.15
2022-08-03T03:36:01.745Z,5.87
2022-08-03T03:36:33.781Z,6.07
2022-08-03T03:37:06.078Z,6.05
2022-08-03T03:37:38.125Z,6.35
2022-08-03T03:38:10.505Z,6.20
2022-08-03T03:38:42.499Z,6.10
2022-08-03T03:39:15.590Z,6.05
2022-08-03T03:39:48.120Z,6.07
2022-08-03T03:40:21.771Z,5.75
2022-08-03T03:40:55.427Z,6.18
2022-08-03T03:41:27.602Z,6.20
2022-08-03T03:42:06.004Z,5.50
2022-08-03T03:42:38.499Z,5.95
2022-08-03T03:43:12.283Z,6.18
2022-08-03T03:43:44.433Z,6.37
2022-08-03T03:44:16.573Z,5.80
2022-08-03T03:44:48.866Z,6.00
2022-08-03T03:45:21.990Z,5.90
2022-08-03T03:45:55.309Z,5.78
2022-08-03T03:46:27.338Z,6.45
2022-08-03T03:46:59.309Z,6.40
2022-08-03T03:47:32.806Z,5.78
2022-08-03T03:48:05.963Z,5.65
2022-08-03T03:48:39.391Z,6.10
2022-08-03T03:49:12.919Z,5.87
2022-08-03T03:49:46.063Z,6.18
2022-08-03T03:50:19.133Z,6.50
2022-08-03T03:50:51.335Z,6.03
2022-08-03T03:51:23.318Z,5.90
2022-08-03T03:51:56.855Z,6.00
2022-08-03T03:52:28.857Z,8.10
2022-08-03T03:53:02.049Z,6.62
2022-08-03T03:53:33.958Z,6.15
2022-08-03T03:54:07.215Z,6.15
2022-08-03T03:54:43.381Z,5.93
2022-08-03T03:55:19.034Z,6.22
2022-08-03T03:55:59.518Z,5.87
2022-08-03T03:56:34.211Z,6.20
2022-08-03T03:57:06.125Z,5.80
2022-08-03T03:57:38.041Z,6.15
2022-08-03T03:58:10.012Z,5.30
2022-08-03T03:58:41.975Z,6.05
2022-08-03T03:59:14.244Z,5.57
2022-08-03T03:59:46.144Z,6.37
2022-08-03T04:00:19.499Z,5.70
2022-08-03T04:00:53.944Z,5.50
2022-08-03T04:01:27.414Z,5.75
2022-08-03T04:01:59.835Z,5.80
2022-08-03T04:02:31.742Z,5.70
2022-08-03T04:03:03.757Z,5.65
2022-08-03T04:03:35.943Z,5.60
2022-08-03T04:04:26.649Z,5.70
2022-08-03T04:05:16.980Z,5.80
2022-08-03T04:06:08.084Z,5.40
2022-08-03T04:06:59.061Z,5.50
2022-08-03T04:08:05.069Z,5.28
2022-08-03T04:08:55.582Z,5.60
2022-08-03T04:09:45.994Z,5.00
2022-08-03T04:10:40.819Z,5.40
2022-08-03T04:11:29.124Z,5.30
2022-08-03T04:12:04.615Z,5.50
2022-08-03T04:12:37.606Z,5.68
2022-08-03T04:13:22.985Z,5.10
2022-08-03T04:14:10.951Z,5.53
2022-08-03T04:14:44.057Z,5.90
2022-08-03T04:15:18.223Z,5.65
2022-08-03T04:15:50.837Z,6.30
2022-08-03T04:16:26.702Z,6.20
2022-08-03T04:17:02.560Z,5.28
2022-08-03T04:17:36.317Z,5.47
2022-08-03T04:18:14.106Z,6.20
2022-08-03T04:18:50.491Z,6.15
2022-08-03T04:19:31.522Z,6.37
2022-08-03T04:20:04.337Z,6.10
2022-08-03T04:20:38.881Z,6.53
2022-08-03T04:21:13.564Z,6.15
2022-08-03T04:21:49.980Z,5.90
2022-08-03T04:22:26.968Z,5.90
2022-08-03T04:23:00.701Z,5.72
2022-08-03T04:23:36.018Z,5.93
2022-08-03T04:24:11.767Z,5.72
2022-08-03T04:24:48.645Z,5.70
2022-08-03T04:25:23.547Z,5.93
2022-08-03T04:25:56.552Z,5.82
2022-08-03T04:26:32.950Z,5.75
2022-08-03T04:27:08.743Z,5.80
2022-08-03T04:27:42.518Z,5.55
2022-08-03T04:28:30.636Z,5.97
2022-08-03T04:29:06.126Z,6.00
2022-08-03T04:29:44.759Z,5.93
2022-08-03T04:30:20.915Z,6.47
2022-08-03T04:30:53.800Z,6.07
2022-08-03T04:31:27.308Z,6.18
2022-08-03T04:32:01.051Z,6.22
2022-08-03T04:32:37.263Z,5.72
2022-08-03T04:33:09.323Z,6.28
2022-08-03T04:33:43.838Z,6.00
2022-08-03T04:34:16.534Z,6.50
2022-08-03T04:34:48.666Z,6.35
2022-08-03T04:35:20.959Z,6.35
2022-08-03T04:36:22.317Z,5.40
2022-08-03T04:37:01.585Z,5.78
2022-08-03T04:37:40.135Z,6.45
2022-08-03T04:38:14.478Z,6.53
2022-08-03T04:39:01.724Z,6.50
2022-08-03T04:39:34.539Z,7.00
2022-08-03T04:40:10.638Z,6.47
2022-08-03T04:40:44.451Z,6.53
2022-08-03T04:41:17.831Z,6.20
2022-08-03T04:42:02.226Z,6.32
2022-08-03T04:42:42.124Z,6.15
2022-08-03T04:43:16.806Z,5.75
2022-08-03T04:43:51.838Z,6.00
2022-08-03T04:44:28.430Z,5.40
2022-08-03T04:45:03.667Z,6.32
2022-08-03T04:45:36.702Z,6.03
2022-08-03T04:46:10.360Z,6.20
2022-08-03T04:46:46.730Z,6.47
2022-08-03T04:47:25.199Z,6.00
2022-08-03T04:47:58.251Z,6.15
2022-08-03T04:48:30.479Z,6.62
2022-08-03T04:49:03.381Z,6.18
2022-08-03T04:49:37.931Z,5.72
2022-08-03T04:50:13.546Z,6.57
2022-08-03T04:50:48.120Z,6.47
2022-08-03T04:51:20.364Z,6.20
2022-08-03T04:51:53.283Z,6.20
2022-08-03T04:52:25.416Z,6.32
2022-08-03T04:52:57.324Z,6.57
2022-08-03T04:53:29.289Z,6.10
2022-08-03T04:54:02.148Z,7.05
2022-08-03T04:54:50.004Z,6.12
2022-08-03T04:55:40.705Z,6.40
2022-08-03T04:56:12.678Z,6.28
2022-08-03T04:56:44.815Z,6.40
2022-08-03T04:57:22.347Z,6.00
2022-08-03T04:57:55.910Z,6.28
2022-08-03T04:58:28.487Z,6.00
2022-08-03T04:59:00.497Z,5.93
2022-08-03T04:59:32.419Z,7.12
2022-08-03T05:00:06.481Z,5.78
2022-08-03T05:00:38.654Z,6.28
2022-08-03T05:01:11.010Z,5.87
2022-08-03T05:01:43.143Z,6.20
2022-08-03T05:02:16.196Z,6.40
2022-08-03T05:02:48.332Z,6.53
2022-08-03T05:03:24.325Z,5.80
2022-08-03T05:03:57.158Z,5.45
2022-08-03T05:04:29.105Z,6.37
2022-08-03T05:05:01.100Z,6.53
2022-08-03T05:05:50.225Z,5.45
2022-08-03T05:06:25.007Z,6.12
2022-08-03T05:06:57.187Z,5.93
2022-08-03T05:07:36.404Z,6.78
2022-08-03T05:08:11.048Z,5.50
2022-08-03T05:08:46.047Z,6.30
2022-08-03T05:09:33.475Z,6.37
2022-08-03T05:10:15.706Z,5.62
2022-08-03T05:10:48.633Z,6.43
2022-08-03T05:11:21.075Z,6.95
2022-08-03T05:11:54.629Z,5.97
2022-08-03T05:12:30.638Z,5.37
2022-08-03T05:13:05.262Z,6.82
2022-08-03T05:13:37.157Z,5.95
2022-08-03T05:14:09.168Z,6.37
2022-08-03T05:14:41.267Z,6.18
2022-08-03T05:15:13.706Z,6.30
2022-08-03T05:15:45.744Z,6.40
2022-08-03T05:16:18.033Z,6.50
2022-08-03T05:16:49.990Z,6.15
2022-08-03T05:17:23.292Z,6.00
2022-08-03T05:17:55.292Z,6.37
2022-08-03T05:18:27.230Z,5.68
2022-08-03T05:18:59.136Z,5.95
2022-08-03T05:19:31.962Z,5.68
2022-08-03T05:20:04.656Z,5.68
2022-08-03T05:20:36.577Z,5.55
2022-08-03T05:21:09.787Z,5.60
2022-08-03T05:21:52.858Z,5.93
2022-08-03T05:22:25.039Z,6.15
2022-08-03T05:22:57.776Z,5.97
2022-08-03T05:23:29.716Z,5.70
2022-08-03T05:24:01.675Z,5.10
2022-08-03T05:24:33.604Z,5.47
2022-08-03T05:25:05.861Z,5.05
2022-08-03T05:25:37.752Z,5.78
2022-08-03T05:26:14.246Z,6.07
2022-08-03T05:26:46.494Z,5.00
2022-08-03T05:27:21.193Z,5.32
2022-08-03T05:27:53.211Z,5.03
2022-08-03T05:28:25.136Z,5.43
2022-08-03T05:28:57.075Z,5.60
2022-08-03T05:29:29.013Z,5.07
2022-08-03T05:30:32.321Z,5.60
2022-08-03T05:30:54.195Z,4.65
2022-08-03T05:31:26.118Z,5.37
2022-08-03T05:31:58.547Z,5.53
2022-08-03T05:32:30.525Z,4.78
2022-08-03T05:33:03.751Z,5.15
2022-08-03T05:33:35.743Z,6.07
2022-08-03T05:34:07.944Z,4.82
2022-08-03T05:34:39.915Z,5.20
2022-08-03T05:36:01.319Z,5.25
2022-08-03T05:36:04.631Z,5.20
2022-08-03T05:36:36.559Z,5.05
2022-08-03T05:37:09.918Z,5.00
2022-08-03T05:37:42.367Z,4.65
2022-08-03T05:38:28.706Z,5.20
2022-08-03T05:39:05.119Z,4.80
2022-08-03T05:39:38.057Z,5.35
2022-08-03T05:40:11.115Z,4.90
2022-08-03T05:40:56.900Z,4.75
2022-08-03T05:41:36.808Z,4.55
2022-08-03T05:42:10.659Z,5.03
2022-08-03T05:42:42.548Z,6.37
2022-08-03T05:43:14.541Z,7.43
2022-08-03T05:43:46.803Z,6.85
2022-08-03T05:44:18.803Z,5.40
2022-08-03T05:44:50.998Z,7.28
2022-08-03T05:45:28.093Z,8.70
2022-08-03T05:46:12.037Z,5.47
2022-08-03T05:46:44.881Z,5.62
2022-08-03T05:47:17.137Z,5.10
2022-08-03T05:47:50.969Z,5.15
2022-08-03T05:48:22.846Z,5.53
2022-08-03T05:48:54.835Z,5.40
2022-08-03T05:49:26.876Z,5.43
2022-08-03T05:49:58.990Z,6.05
2022-08-03T05:50:30.928Z,6.03
2022-08-03T05:51:04.775Z,6.18
2022-08-03T05:51:37.260Z,6.00
2022-08-03T05:52:10.649Z,5.70
2022-08-03T05:52:46.533Z,6.50
2022-08-03T05:53:18.980Z,5.80
2022-08-03T05:53:50.994Z,5.10
2022-08-03T05:54:22.941Z,5.55
2022-08-03T05:55:15.098Z,5.05
2022-08-03T05:55:48.588Z,4.60
2022-08-03T05:56:27.477Z,5.60
2022-08-03T05:56:59.401Z,5.12
2022-08-03T05:57:31.330Z,5.72
2022-08-03T05:58:03.923Z,5.25
2022-08-03T05:58:35.848Z,5.20
2022-08-03T05:59:35.761Z,5.40
2022-08-03T05:59:59.697Z,5.93
2022-08-03T06:00:31.895Z,5.32
2022-08-03T06:01:04.277Z,6.10
2022-08-03T06:01:36.919Z,5.97
2022-08-03T06:02:09.050Z,5.68
2022-08-03T06:02:41.540Z,5.53
2022-08-03T06:03:15.175Z,5.45
2022-08-03T06:03:47.666Z,5.75
2022-08-03T06:04:19.828Z,6.00
2022-08-03T06:04:52.061Z,5.40
2022-08-03T06:05:28.260Z,6.05
2022-08-03T06:06:00.938Z,5.97
2022-08-03T06:06:33.813Z,5.22
2022-08-03T06:07:05.756Z,5.28
2022-08-03T06:07:37.934Z,6.10
2022-08-03T06:08:09.825Z,6.10
2022-08-03T06:08:48.986Z,5.47
2022-08-03T06:09:20.969Z,6.00
2022-08-03T06:10:35.481Z,5.85
2022-08-03T06:10:44.975Z,5.72
2022-08-03T06:11:17.415Z,5.82
2022-08-03T06:11:49.727Z,5.78
2022-08-03T06:12:21.725Z,5.45
2022-08-03T06:12:53.700Z,5.90
2022-08-03T06:13:25.598Z,5.97
2022-08-03T06:13:57.566Z,5.80
2022-08-03T06:14:29.522Z,5.68
2022-08-03T06:15:02.940Z,5.68
2022-08-03T06:15:35.510Z,5.60
2022-08-03T06:16:07.616Z,5.37
2022-08-03T06:16:39.644Z,5.55
2022-08-03T06:17:11.890Z,5.97
2022-08-03T06:17:51.429Z,5.97
2022-08-03T06:18:24.721Z,5.47
2022-08-03T06:18:56.698Z,5.70
2022-08-03T06:19:28.622Z,6.30
2022-08-03T06:20:00.681Z,6.20
2022-08-03T06:20:32.645Z,5.53
2022-08-03T06:21:11.075Z,6.20
2022-08-03T06:21:47.713Z,5.75
2022-08-03T06:22:20.251Z,5.57
2022-08-03T06:23:01.202Z,5.32
2022-08-03T06:23:52.933Z,5.70
2022-08-03T06:24:25.364Z,5.65
2022-08-03T06:24:58.648Z,6.03
2022-08-03T06:25:36.323Z,5.68
2022-08-03T06:26:08.220Z,5.57
2022-08-03T06:26:40.197Z,5.78
2022-08-03T06:27:12.377Z,5.93
2022-08-03T06:27:45.568Z,5.93
2022-08-03T06:28:51.792Z,6.00
2022-08-03T06:29:11.596Z,5.70
2022-08-03T06:29:43.583Z,6.20
2022-08-03T06:30:21.050Z,6.32
2022-08-03T06:30:53.454Z,5.65
2022-08-03T06:31:33.466Z,6.18
2022-08-03T06:32:06.134Z,5.87
2022-08-03T06:32:39.379Z,6.78
2022-08-03T06:33:11.739Z,6.20
2022-08-03T06:34:31.052Z,5.68
2022-08-03T06:34:35.860Z,5.80
2022-08-03T06:35:09.532Z,5.85
2022-08-03T06:35:42.480Z,6.22
2022-08-03T06:36:17.119Z,6.65
2022-08-03T06:36:52.275Z,5.87
2022-08-03T06:37:24.645Z,6.20
2022-08-03T06:37:57.074Z,6.32
2022-08-03T06:38:29.297Z,5.75
2022-08-03T06:39:02.247Z,5.95
2022-08-03T06:39:34.284Z,5.82
2022-08-03T06:40:06.625Z,6.03
2022-08-03T06:40:40.166Z,6.43
2022-08-03T06:41:12.088Z,6.62
2022-08-03T06:41:44.847Z,6.12
2022-08-03T06:42:17.184Z,6.18
2022-08-03T06:42:49.317Z,6.07
2022-08-03T06:43:22.307Z,6.10
2022-08-03T06:44:03.410Z,6.20
2022-08-03T06:44:37.643Z,6.22
2022-08-03T06:45:10.664Z,6.12
2022-08-03T06:45:42.635Z,5.80
2022-08-03T06:46:19.973Z,5.90
2022-08-03T06:46:52.517Z,6.05
2022-08-03T06:47:24.446Z,6.12
2022-08-03T06:48:06.454Z,5.95
2022-08-03T06:48:38.357Z,6.35
2022-08-03T06:49:10.671Z,6.12
2022-08-03T06:49:42.824Z,6.03
2022-08-03T06:50:16.928Z,6.10
2022-08-03T06:50:50.458Z,6.03
2022-08-03T06:52:03.050Z,6.22
2022-08-03T06:52:15.585Z,6.18
2022-08-03T06:53:09.211Z,5.82
2022-08-03T06:53:50.382Z,6.05
2022-08-03T06:54:24.311Z,6.10
2022-08-03T06:54:56.256Z,6.50
2022-08-03T06:55:28.442Z,6.32
2022-08-03T06:56:00.439Z,6.55
2022-08-03T06:56:32.352Z,6.90
2022-08-03T06:57:04.911Z,6.45
2022-08-03T06:57:37.010Z,6.70
2022-08-03T06:58:08.938Z,6.20
2022-08-03T06:58:41.086Z,6.12
2022-08-03T07:00:07.737Z,6.53
2022-08-03T07:00:11.874Z,5.55
2022-08-03T07:00:44.660Z,6.07
2022-08-03T07:01:18.904Z,6.20
2022-08-03T07:01:51.002Z,6.50
2022-08-03T07:02:23.392Z,6.87
2022-08-03T07:02:58.296Z,6.28
2022-08-03T07:03:30.572Z,6.07
2022-08-03T07:04:02.471Z,7.43
2022-08-03T07:04:34.502Z,6.97
2022-08-03T07:05:07.943Z,7.00
2022-08-03T07:05:39.892Z,6.03
2022-08-03T07:06:11.869Z,7.12
2022-08-03T07:06:43.792Z,6.22
2022-08-03T07:07:15.805Z,6.10
2022-08-03T07:07:47.735Z,6.70
2022-08-03T07:08:19.986Z,6.82
2022-08-03T07:09:06.140Z,6.97
2022-08-03T07:09:38.136Z,6.47
2022-08-03T07:10:11.693Z,7.10
2022-08-03T07:10:44.625Z,6.40
2022-08-03T07:11:16.909Z,6.87
2022-08-03T07:11:48.856Z,6.37
2022-08-03T07:12:20.810Z,6.50
2022-08-03T07:12:56.775Z,7.03
2022-08-03T07:13:29.068Z,6.78
2022-08-03T07:14:01.026Z,6.45
2022-08-03T07:14:34.063Z,7.10
2022-08-03T07:15:06.534Z,6.45
2022-08-03T07:15:55.643Z,6.80
2022-08-03T07:16:28.221Z,6.80
2022-08-03T07:17:00.124Z,6.60
2022-08-03T07:17:34.343Z,6.43
2022-08-03T07:18:06.983Z,6.35
2022-08-03T07:18:40.057Z,6.10
2022-08-03T07:19:12.346Z,6.53
2022-08-03T07:19:44.631Z,6.25
2022-08-03T07:20:18.294Z,6.37
2022-08-03T07:20:50.589Z,6.80
2022-08-03T07:21:22.572Z,6.03
2022-08-03T07:21:54.782Z,6.65
2022-08-03T07:22:32.319Z,6.78
2022-08-03T07:23:04.287Z,6.82
2022-08-03T07:23:36.324Z,6.80
2022-08-03T07:24:09.274Z,6.40
2022-08-03T07:24:42.113Z,6.40
2022-08-03T07:25:14.119Z,5.68
2022-08-03T07:25:46.159Z,6.72
2022-08-03T07:26:18.428Z,6.35
2022-08-03T07:26:50.369Z,6.10
2022-08-03T07:27:22.546Z,6.90
2022-08-03T07:27:54.514Z,6.78
2022-08-03T07:28:28.379Z,6.37
2022-08-03T07:29:02.061Z,6.20
2022-08-03T07:29:37.790Z,6.70
2022-08-03T07:30:10.396Z,6.25
2022-08-03T07:30:42.304Z,6.10
2022-08-03T07:31:14.256Z,6.57
2022-08-03T07:31:46.564Z,6.62
2022-08-03T07:32:18.736Z,6.55
2022-08-03T07:32:50.961Z,6.80
2022-08-03T07:33:23.107Z,7.00
2022-08-03T07:33:55.088Z,6.25
2022-08-03T07:34:27.097Z,6.65
2022-08-03T07:35:01.178Z,6.43
2022-08-03T07:35:34.255Z,6.22
2022-08-03T07:36:06.243Z,6.32
2022-08-03T07:36:38.240Z,6.60
2022-08-03T07:37:10.477Z,6.12
2022-08-03T07:37:42.726Z,6.28
2022-08-03T07:38:26.287Z,6.25
2022-08-03T07:38:58.406Z,6.72
2022-08-03T07:39:30.384Z,6.03
2022-08-03T07:40:04.297Z,6.40
2022-08-03T07:40:36.210Z,6.12
2022-08-03T07:41:08.280Z,6.40
2022-08-03T07:41:40.161Z,6.28
2022-08-03T07:42:14.762Z,6.75
2022-08-03T07:42:46.812Z,6.40
2022-08-03T07:43:18.832Z,6.40
2022-08-03T07:43:51.066Z,6.22
2022-08-03T07:44:23.057Z,6.03
2022-08-03T07:44:55.438Z,5.87
2022-08-03T07:45:27.363Z,6.55
2022-08-03T07:45:59.538Z,6.40
2022-08-03T07:46:31.482Z,6.30
2022-08-03T07:47:03.571Z,6.47
2022-08-03T07:47:36.169Z,6.00
2022-08-03T07:48:12.080Z,5.85
2022-08-03T07:48:44.392Z,6.50
2022-08-03T07:49:17.555Z,6.22
2022-08-03T07:49:49.736Z,6.18
2022-08-03T07:50:22.548Z,5.80
2022-08-03T07:50:54.593Z,6.18
2022-08-03T07:51:26.607Z,6.12
2022-08-03T07:52:18.159Z,6.50
2022-08-03T07:52:56.060Z,6.50
2022-08-03T07:53:27.960Z,5.70
2022-08-03T07:54:00.972Z,6.40
2022-08-03T07:54:32.998Z,5.70
2022-08-03T07:55:06.886Z,6.55